Anzoras — EAZC — position and weather

sailwx.info

Track history (hours):
 
Tides and Currents Weather Stations Pressure Air Temp Water Temp Dewpoint Dewpoint Depression Visibility Wind Speed Wind Dir Waves Ship Positions

Anzoras

Last reported at 2015-Aug-03 20:33 UTC. Time now 2015-Aug-03 21:22 UTC.
Position N 53°06' E 004°26'.

Length 100 m; draft 5.8 m.

Type: Cargo ship. MMSI: 224376000.

Date/timePositionNaut miles runAvg speedWind from/ knotsBaromVisibWave heightAir tempDewpointWater temp
2015-Aug-03 20:33N 53°06' E 004°26'1211.8
2015-Aug-03 19:33N 52°56' E 004°17'1212.2
2015-Aug-03 18:33N 52°45' E 004°06'9111.4
2015-Aug-03 10:33N 51°39' E 002°24'9 8.8
2015-Aug-03 09:32N 51°32' E 002°15'9 9.1
2015-Aug-03 08:33N 51°25' E 002°06'10 9.8
2015-Aug-03 07:33N 51°18' E 001°56'1010.3
2015-Aug-03 06:33N 51°10' E 001°45'1111.0
2015-Aug-03 05:33N 51°02' E 001°33'1511.6
2015-Aug-03 04:18N 50°49' E 001°23'811.4
2015-Aug-03 03:33N 50°41' E 001°17'1311.7
2015-Aug-03 02:27N 50°33' E 001°02'1011.1
2015-Aug-03 01:33N 50°29' E 000°47'1611.4
2015-Aug-03 00:11N 50°25' E 000°23'2613.0
2015-Aug-02 22:10N 50°18' W 000°16'813.9
2015-Aug-02 21:33N 50°15' W 000°29'1413.7
2015-Aug-02 20:33N 50°11' W 000°49'1612.8
2015-Aug-02 19:20N 50°07' W 001°13'911.3
2015-Aug-02 18:33N 50°06' W 001°26'9 9.5
2015-Aug-02 17:33N 50°03' W 001°40'8 7.7
2015-Aug-02 16:33N 50°01' W 001°52'7 6.5
2015-Aug-02 15:32N 49°59' W 002°02'6 6.0
2015-Aug-02 14:34N 49°58' W 002°11'406 9.4
2015-Jul-31 19:24N 43°43' W 005°59'  
2015-Jul-28 08:33N 43°37' W 005°58'0 0.0
2015-Jul-27 22:31N 43°37' W 005°58'31 7.8
2015-Jul-27 18:31N 43°46' W 005°16'4 0.6
2015-Jul-27 11:25N 43°49' W 005°12'8 8.4
2015-Jul-27 10:28N 43°44' W 005°20'3 3.0
2015-Jul-27 09:33N 43°43' W 005°24'2 1.7
2015-Jul-27 08:33N 43°44' W 005°25'2 1.6
2015-Jul-27 07:33N 43°46' W 005°27'2 1.8
2015-Jul-27 06:34N 43°47' W 005°28'2 1.7
2015-Jul-27 05:31N 43°48' W 005°30'2 1.7
2015-Jul-27 04:31N 43°48' W 005°33'2 1.6
2015-Jul-27 03:31N 43°48' W 005°35'1 1.5
2015-Jul-27 02:32N 43°48' W 005°37'2 1.4
2015-Jul-27 01:28N 43°48' W 005°39'1 1.4
2015-Jul-27 00:27N 43°48' W 005°41'8 1.5
2015-Jul-26 19:04N 43°52' W 005°51'11 2.4
2015-Jul-26 14:18N 43°42' W 005°60'2 2.2
2015-Jul-26 13:31N 43°43' W 006°01'2 1.9
2015-Jul-26 12:27N 43°45' W 006°03'2 1.8
2015-Jul-26 11:32N 43°46' W 006°04'3 1.0
2015-Jul-26 08:16N 43°48' W 006°08'0 0.5
2015-Jul-26 07:23N 43°48' W 006°09'1 0.3
2015-Jul-26 05:28N 43°48' W 006°09'0 0.2
2015-Jul-26 04:10N 43°49' W 006°09'0 0.2
2015-Jul-26 03:27N 43°49' W 006°09'  
Track history (hours):
 
Tides and Currents Weather Stations Pressure Air Temp Water Temp Dewpoint Dewpoint Depression Visibility Wind Speed Wind Dir Waves Ship Positions

Anzoras

Last reported at 2015-Aug-03 20:33 UTC. Time now 2015-Aug-03 21:22 UTC.
Position N 53°06' E 004°26'.

Length 100 m; draft 5.8 m.

Type: Cargo ship. MMSI: 224376000.

Date/timePositionNaut miles runAvg speedWind from/ knotsBaromVisibWave heightAir tempDewpointWater temp
2015-Aug-03 20:33N 53°06' E 004°26'1211.8
2015-Aug-03 19:33N 52°56' E 004°17'1212.2
2015-Aug-03 18:33N 52°45' E 004°06'9111.4
2015-Aug-03 10:33N 51°39' E 002°24'9 8.8
2015-Aug-03 09:32N 51°32' E 002°15'9 9.1
2015-Aug-03 08:33N 51°25' E 002°06'10 9.8
2015-Aug-03 07:33N 51°18' E 001°56'1010.3
2015-Aug-03 06:33N 51°10' E 001°45'1111.0
2015-Aug-03 05:33N 51°02' E 001°33'1511.6
2015-Aug-03 04:18N 50°49' E 001°23'811.4
2015-Aug-03 03:33N 50°41' E 001°17'1311.7
2015-Aug-03 02:27N 50°33' E 001°02'1011.1
2015-Aug-03 01:33N 50°29' E 000°47'1611.4
2015-Aug-03 00:11N 50°25' E 000°23'2613.0
2015-Aug-02 22:10N 50°18' W 000°16'813.9
2015-Aug-02 21:33N 50°15' W 000°29'1413.7
2015-Aug-02 20:33N 50°11' W 000°49'1612.8
2015-Aug-02 19:20N 50°07' W 001°13'911.3
2015-Aug-02 18:33N 50°06' W 001°26'9 9.5
2015-Aug-02 17:33N 50°03' W 001°40'8 7.7
2015-Aug-02 16:33N 50°01' W 001°52'7 6.5
2015-Aug-02 15:32N 49°59' W 002°02'6 6.0
2015-Aug-02 14:34N 49°58' W 002°11'406 9.4
2015-Jul-31 19:24N 43°43' W 005°59'  
2015-Jul-28 08:33N 43°37' W 005°58'0 0.0
2015-Jul-27 22:31N 43°37' W 005°58'31 7.8
2015-Jul-27 18:31N 43°46' W 005°16'4 0.6
2015-Jul-27 11:25N 43°49' W 005°12'8 8.4
2015-Jul-27 10:28N 43°44' W 005°20'3 3.0
2015-Jul-27 09:33N 43°43' W 005°24'2 1.7
2015-Jul-27 08:33N 43°44' W 005°25'2 1.6
2015-Jul-27 07:33N 43°46' W 005°27'2 1.8
2015-Jul-27 06:34N 43°47' W 005°28'2 1.7
2015-Jul-27 05:31N 43°48' W 005°30'2 1.7
2015-Jul-27 04:31N 43°48' W 005°33'2 1.6
2015-Jul-27 03:31N 43°48' W 005°35'1 1.5
2015-Jul-27 02:32N 43°48' W 005°37'2 1.4
2015-Jul-27 01:28N 43°48' W 005°39'1 1.4
2015-Jul-27 00:27N 43°48' W 005°41'8 1.5
2015-Jul-26 19:04N 43°52' W 005°51'11 2.4
2015-Jul-26 14:18N 43°42' W 005°60'2 2.2
2015-Jul-26 13:31N 43°43' W 006°01'2 1.9
2015-Jul-26 12:27N 43°45' W 006°03'2 1.8
2015-Jul-26 11:32N 43°46' W 006°04'3 1.0
2015-Jul-26 08:16N 43°48' W 006°08'0 0.5
2015-Jul-26 07:23N 43°48' W 006°09'1 0.3
2015-Jul-26 05:28N 43°48' W 006°09'0 0.2
2015-Jul-26 04:10N 43°49' W 006°09'0 0.2
2015-Jul-26 03:27N 43°49' W 006°09'  

Dump ship's entire track history